createdAt,value
2023-02-14T00:01:50.901Z,55.80
2023-02-14T00:04:20.843Z,59.70
2023-02-14T00:06:49.294Z,56.33
2023-02-14T00:09:20.181Z,59.30
2023-02-14T00:11:48.757Z,54.93
2023-02-14T00:14:36.562Z,58.23
2023-02-14T00:17:05.072Z,56.77
2023-02-14T00:19:34.734Z,60.07
2023-02-14T00:22:03.647Z,75.97
2023-02-14T00:24:32.371Z,63.83
2023-02-14T00:27:01.070Z,55.97
2023-02-14T00:29:33.329Z,57.67
2023-02-14T00:32:02.209Z,54.80
2023-02-14T00:34:30.643Z,57.87
2023-02-14T00:36:59.120Z,53.10
2023-02-14T00:39:27.542Z,61.33
2023-02-14T00:41:55.886Z,50.73
2023-02-14T00:44:25.132Z,56.90
2023-02-14T00:46:54.976Z,56.13
2023-02-14T00:49:23.321Z,54.33
2023-02-14T00:51:51.781Z,60.70
2023-02-14T00:54:20.028Z,55.87
2023-02-14T00:56:48.427Z,60.47
2023-02-14T00:59:16.924Z,61.63
2023-02-14T01:01:45.298Z,53.90
2023-02-14T01:04:15.040Z,62.23
2023-02-14T01:06:43.333Z,63.13
2023-02-14T01:09:11.646Z,62.00
2023-02-14T01:11:41.620Z,68.67
2023-02-14T01:14:10.380Z,71.33
2023-02-14T01:16:40.303Z,65.47
2023-02-14T01:19:09.337Z,64.43
2023-02-14T01:21:39.059Z,61.80
2023-02-14T01:24:09.499Z,61.57
2023-02-14T01:26:38.258Z,69.33
2023-02-14T01:29:07.117Z,66.33
2023-02-14T01:31:37.075Z,81.00
2023-02-14T01:34:05.976Z,71.67
2023-02-14T01:36:39.347Z,70.30
2023-02-14T01:39:12.331Z,67.83
2023-02-14T01:41:42.473Z,73.90
2023-02-14T01:44:57.999Z,76.13
2023-02-14T01:47:28.812Z,70.03
2023-02-14T01:50:02.461Z,75.87
2023-02-14T01:52:36.929Z,81.00
2023-02-14T01:55:09.978Z,83.23
2023-02-14T01:57:45.126Z,81.00
2023-02-14T02:00:33.757Z,82.77
2023-02-14T02:03:04.733Z,83.17
2023-02-14T02:05:33.334Z,78.90
2023-02-14T02:08:03.319Z,87.60
2023-02-14T02:10:31.776Z,84.07
2023-02-14T02:13:09.186Z,79.33
2023-02-14T02:15:47.784Z,88.77
2023-02-14T02:18:25.174Z,89.10
2023-02-14T02:21:56.006Z,82.57
2023-02-14T02:24:36.005Z,82.43
2023-02-14T02:27:27.101Z,87.90
2023-02-14T02:30:40.972Z,82.93
2023-02-14T02:34:21.065Z,92.73
2023-02-14T02:37:19.674Z,85.30
2023-02-14T02:40:05.964Z,87.53
2023-02-14T02:42:47.463Z,88.40
2023-02-14T02:45:27.457Z,94.47
2023-02-14T02:48:06.817Z,82.87
2023-02-14T02:50:59.756Z,99.97
2023-02-14T02:53:35.984Z,104.03
2023-02-14T02:56:28.511Z,103.73
2023-02-14T02:59:01.287Z,105.10
2023-02-14T03:01:35.106Z,106.23
2023-02-14T03:04:29.382Z,98.57
2023-02-14T03:06:58.478Z,90.57
2023-02-14T03:09:57.796Z,100.60
2023-02-14T03:13:06.455Z,107.27
2023-02-14T03:15:59.072Z,101.83
2023-02-14T03:19:03.131Z,100.23
2023-02-14T03:21:39.117Z,97.27
2023-02-14T03:24:17.240Z,110.33
2023-02-14T03:26:51.419Z,109.97
2023-02-14T03:29:30.889Z,104.13
2023-02-14T03:32:06.294Z,107.50
2023-02-14T03:34:48.721Z,106.83
2023-02-14T03:37:22.909Z,97.90
2023-02-14T03:40:01.324Z,96.70
2023-02-14T03:42:36.960Z,107.07
2023-02-14T03:45:10.323Z,101.30
2023-02-14T03:47:42.567Z,103.07
2023-02-14T03:50:16.037Z,98.37
2023-02-14T03:52:46.089Z,100.70
2023-02-14T03:55:18.591Z,104.63
2023-02-14T03:57:58.045Z,110.87
2023-02-14T04:00:26.953Z,107.13
2023-02-14T04:03:01.142Z,107.13
2023-02-14T04:05:30.018Z,114.30
2023-02-14T04:08:00.374Z,111.00
2023-02-14T04:10:28.901Z,113.03
2023-02-14T04:12:58.697Z,114.57
2023-02-14T04:15:27.043Z,110.13
2023-02-14T04:18:13.171Z,112.87
2023-02-14T04:20:41.485Z,117.00
2023-02-14T04:23:09.747Z,127.20
2023-02-14T04:25:40.192Z,121.83
2023-02-14T04:28:10.016Z,102.93
2023-02-14T04:30:38.475Z,105.30
2023-02-14T04:33:08.044Z,109.80
2023-02-14T04:35:36.933Z,104.23
2023-02-14T04:38:06.390Z,106.67
2023-02-14T04:40:34.715Z,108.23
2023-02-14T04:43:04.684Z,114.63
2023-02-14T04:45:34.508Z,109.17
2023-02-14T04:48:02.859Z,122.87
2023-02-14T04:50:31.423Z,111.53
2023-02-14T04:52:59.837Z,117.03
2023-02-14T04:55:28.138Z,112.90
2023-02-14T04:57:56.361Z,103.97
2023-02-14T05:00:24.859Z,121.13
2023-02-14T05:02:54.635Z,108.87
2023-02-14T05:05:23.262Z,115.50
2023-02-14T05:07:51.595Z,120.97
2023-02-14T05:10:20.240Z,105.53
2023-02-14T05:12:48.509Z,123.20
2023-02-14T05:15:16.984Z,121.73
2023-02-14T05:17:45.296Z,126.70
2023-02-14T05:20:15.375Z,130.03
2023-02-14T05:22:43.615Z,123.93
2023-02-14T05:25:12.101Z,107.77
2023-02-14T05:27:40.451Z,126.07
2023-02-14T05:30:11.006Z,124.43
2023-02-14T05:32:39.442Z,116.23
2023-02-14T05:35:08.617Z,120.53
2023-02-14T05:37:38.613Z,132.80
2023-02-14T05:40:09.306Z,112.33
2023-02-14T05:42:37.604Z,123.33
2023-02-14T05:45:07.142Z,118.90
2023-02-14T05:47:35.675Z,125.33
2023-02-14T05:50:04.383Z,119.03
2023-02-14T05:52:32.798Z,127.73
2023-02-14T05:55:02.489Z,121.90
2023-02-14T05:57:30.816Z,117.40
2023-02-14T05:59:59.132Z,140.70
2023-02-14T06:02:27.593Z,136.57
2023-02-14T06:04:56.055Z,108.20
2023-02-14T06:07:24.612Z,118.10
2023-02-14T06:09:53.084Z,121.40
2023-02-14T06:12:22.846Z,108.33
2023-02-14T06:14:51.186Z,123.37
2023-02-14T06:17:19.609Z,128.17
2023-02-14T06:19:47.962Z,135.67
2023-02-14T06:22:16.486Z,122.17
2023-02-14T06:24:45.178Z,127.53
2023-02-14T06:27:13.448Z,120.83
2023-02-14T06:29:43.118Z,122.77
2023-02-14T06:32:11.539Z,122.57
2023-02-14T06:34:41.025Z,123.60
2023-02-14T06:37:09.603Z,139.40
2023-02-14T06:39:38.222Z,123.27
2023-02-14T06:42:06.762Z,143.90
2023-02-14T06:44:35.068Z,134.13
2023-02-14T06:47:05.292Z,149.50
2023-02-14T06:49:33.558Z,137.93
2023-02-14T06:52:01.941Z,138.37
2023-02-14T06:54:30.349Z,128.87
2023-02-14T06:56:58.934Z,135.37
2023-02-14T06:59:27.335Z,123.03
2023-02-14T07:01:55.651Z,128.63
2023-02-14T07:04:25.639Z,126.53
2023-02-14T07:06:54.026Z,124.70
2023-02-14T07:09:22.321Z,146.07
2023-02-14T07:11:51.214Z,145.93
2023-02-14T07:14:19.506Z,122.83
2023-02-14T07:16:48.043Z,155.80
2023-02-14T07:19:16.365Z,154.13
2023-02-14T07:21:46.050Z,155.33
2023-02-14T07:24:14.358Z,146.87
2023-02-14T07:26:42.687Z,142.47
2023-02-14T07:29:10.994Z,161.23
2023-02-14T07:31:39.463Z,167.17
2023-02-14T07:34:10.979Z,175.03
2023-02-14T07:36:39.480Z,169.07
2023-02-14T07:39:09.467Z,150.73
2023-02-14T07:41:38.644Z,157.97
2023-02-14T07:44:07.006Z,150.57
2023-02-14T07:46:35.455Z,153.40
2023-02-14T07:49:04.064Z,142.23
2023-02-14T07:51:32.456Z,152.80
2023-02-14T07:54:00.894Z,150.20
2023-02-14T07:56:30.655Z,153.03
2023-02-14T07:58:59.180Z,136.53
2023-02-14T08:01:27.678Z,162.53
2023-02-14T08:03:56.145Z,149.67
2023-02-14T08:06:26.055Z,187.67
2023-02-14T08:08:54.782Z,140.53
2023-02-14T08:11:40.666Z,169.73
2023-02-14T08:14:10.412Z,182.63
2023-02-14T08:16:39.893Z,212.33
2023-02-14T08:19:08.424Z,208.93
2023-02-14T08:21:36.824Z,179.90
2023-02-14T08:24:05.620Z,262.07
2023-02-14T08:26:33.898Z,277.73
2023-02-14T08:29:03.524Z,301.83
2023-02-14T08:31:36.076Z,197.63
2023-02-14T08:34:05.801Z,192.70
2023-02-14T08:36:34.449Z,227.90
2023-02-14T08:39:04.922Z,183.00
2023-02-14T08:41:33.518Z,193.07
2023-02-14T08:44:02.178Z,216.20
2023-02-14T08:46:32.273Z,195.90
2023-02-14T08:49:00.626Z,174.77
2023-02-14T08:51:29.501Z,118.03
2023-02-14T08:53:57.870Z,134.53
2023-02-14T08:56:26.256Z,105.13
2023-02-14T08:58:55.598Z,111.27
2023-02-14T09:01:24.076Z,99.80
2023-02-14T09:03:53.831Z,102.60
2023-02-14T09:06:22.415Z,104.17
2023-02-14T09:08:51.943Z,99.57
2023-02-14T09:11:22.694Z,101.47
2023-02-14T09:13:53.154Z,104.73
2023-02-14T09:16:23.255Z,100.53
2023-02-14T09:18:53.306Z,95.90
2023-02-14T09:21:26.159Z,96.73
2023-02-14T09:23:54.625Z,100.83
2023-02-14T09:26:23.577Z,97.80
2023-02-14T09:28:52.024Z,99.67
2023-02-14T09:31:23.319Z,98.17
2023-02-14T09:34:11.270Z,100.27
2023-02-14T09:36:39.618Z,94.40
2023-02-14T09:39:07.989Z,95.93
2023-02-14T09:42:07.437Z,90.37
2023-02-14T09:44:41.083Z,90.00
2023-02-14T09:47:21.865Z,85.87
2023-02-14T09:49:53.428Z,87.40
2023-02-14T09:52:28.324Z,92.10
2023-02-14T09:55:02.759Z,86.00
2023-02-14T09:57:45.109Z,86.87
2023-02-14T10:00:24.920Z,86.67
2023-02-14T10:03:04.585Z,81.20
2023-02-14T10:05:39.835Z,80.30
2023-02-14T10:08:22.172Z,91.53
2023-02-14T10:10:55.395Z,86.63
2023-02-14T10:13:33.010Z,78.00
2023-02-14T10:16:06.728Z,83.67
2023-02-14T10:18:41.571Z,79.77
2023-02-14T10:21:18.664Z,77.17
2023-02-14T10:23:52.490Z,87.43
2023-02-14T10:26:29.351Z,72.67
2023-02-14T10:28:57.674Z,74.47
2023-02-14T10:31:28.534Z,71.73
2023-02-14T10:34:03.530Z,79.60
2023-02-14T10:37:03.629Z,78.73
2023-02-14T10:39:59.604Z,73.77
2023-02-14T10:42:38.744Z,70.37
2023-02-14T10:45:19.635Z,72.83
2023-02-14T10:47:59.080Z,70.80
2023-02-14T10:50:33.472Z,71.87
2023-02-14T10:53:17.117Z,74.77
2023-02-14T10:55:52.223Z,82.07
2023-02-14T10:58:22.969Z,79.33
2023-02-14T11:01:01.992Z,66.93
2023-02-14T11:03:31.819Z,65.53
2023-02-14T11:06:00.293Z,69.47
2023-02-14T11:08:37.141Z,70.13
2023-02-14T11:11:18.934Z,70.13
2023-02-14T11:13:47.593Z,69.77
2023-02-14T11:16:31.292Z,67.27
2023-02-14T11:19:22.298Z,73.47
2023-02-14T11:21:53.012Z,63.13
2023-02-14T11:24:31.286Z,70.27
2023-02-14T11:27:02.281Z,65.67
2023-02-14T11:29:36.956Z,66.33
2023-02-14T11:32:10.955Z,68.20
2023-02-14T11:34:42.692Z,66.43
2023-02-14T11:37:29.209Z,65.00
2023-02-14T11:40:01.582Z,64.67
2023-02-14T11:42:46.553Z,59.27
2023-02-14T11:45:34.004Z,61.83
2023-02-14T11:48:24.814Z,58.70
2023-02-14T11:51:00.277Z,65.63
2023-02-14T11:53:31.431Z,60.23
2023-02-14T11:56:01.380Z,59.67
2023-02-14T11:58:38.578Z,61.20
2023-02-14T12:01:07.749Z,59.07
2023-02-14T12:03:44.352Z,55.60
2023-02-14T12:06:13.909Z,64.03
2023-02-14T12:08:43.226Z,53.83
2023-02-14T12:11:23.584Z,56.77
2023-02-14T12:13:56.255Z,57.13
2023-02-14T12:16:31.638Z,52.23
2023-02-14T12:19:04.217Z,53.67
2023-02-14T12:21:49.031Z,52.63
2023-02-14T12:24:32.565Z,50.13
2023-02-14T12:27:15.739Z,48.60
2023-02-14T12:29:50.821Z,45.23
2023-02-14T12:32:24.918Z,50.67
2023-02-14T12:34:59.570Z,47.83
2023-02-14T12:37:42.429Z,49.03
2023-02-14T12:40:23.115Z,46.90
2023-02-14T12:43:26.972Z,48.73
2023-02-14T12:46:16.169Z,45.40
2023-02-14T12:49:10.450Z,44.53
2023-02-14T12:51:46.864Z,43.40
2023-02-14T12:54:40.512Z,39.60
2023-02-14T12:57:24.490Z,39.23
2023-02-14T13:00:07.751Z,41.23
2023-02-14T13:03:21.912Z,41.80
2023-02-14T13:05:59.853Z,39.23
2023-02-14T13:08:44.783Z,36.57
2023-02-14T13:11:24.296Z,42.03
2023-02-14T13:14:04.618Z,34.93
2023-02-14T13:16:42.891Z,35.83
2023-02-14T13:19:25.730Z,32.63
2023-02-14T13:21:56.085Z,33.27
2023-02-14T13:24:28.789Z,32.03
2023-02-14T13:27:01.528Z,31.93
2023-02-14T13:29:41.915Z,31.40
2023-02-14T13:32:16.962Z,29.37
2023-02-14T13:34:48.068Z,28.07
2023-02-14T13:37:20.759Z,30.30
2023-02-14T13:39:54.936Z,28.87
2023-02-14T13:42:57.603Z,28.50
2023-02-14T13:46:05.111Z,29.77
2023-02-14T13:48:36.379Z,31.00
2023-02-14T13:51:08.717Z,31.50
2023-02-14T13:53:40.986Z,32.13
2023-02-14T13:56:41.794Z,32.90
2023-02-14T13:59:29.202Z,34.17
2023-02-14T14:01:58.061Z,31.20
2023-02-14T14:04:38.862Z,33.10
2023-02-14T14:07:30.112Z,33.27
2023-02-14T14:10:04.542Z,32.50
2023-02-14T14:12:46.339Z,35.03
2023-02-14T14:15:20.510Z,33.27
2023-02-14T14:18:29.765Z,36.93
2023-02-14T14:20:59.562Z,34.67
2023-02-14T14:23:38.567Z,36.77
2023-02-14T14:26:31.723Z,35.97
2023-02-14T14:29:00.565Z,35.57
2023-02-14T14:31:30.785Z,34.37
2023-02-14T14:34:02.044Z,40.53
2023-02-14T14:36:31.738Z,35.63
2023-02-14T14:39:00.205Z,39.30
2023-02-14T14:41:31.237Z,38.37
2023-02-14T14:44:01.053Z,38.73
2023-02-14T14:46:29.744Z,37.73
2023-02-14T14:48:58.971Z,36.87
2023-02-14T14:51:31.447Z,41.27
2023-02-14T14:54:03.382Z,40.87
2023-02-14T14:56:34.867Z,40.40
2023-02-14T14:59:20.528Z,37.67
2023-02-14T15:01:50.064Z,36.33
2023-02-14T15:04:21.031Z,39.63
2023-02-14T15:06:51.228Z,39.53
2023-02-14T15:09:24.308Z,40.43
2023-02-14T15:12:12.154Z,40.37
2023-02-14T15:14:46.161Z,38.83
2023-02-14T15:17:21.328Z,37.20
2023-02-14T15:19:54.285Z,41.17
2023-02-14T15:22:29.535Z,39.10
2023-02-14T15:24:59.826Z,40.13
2023-02-14T15:27:29.995Z,37.90
2023-02-14T15:30:00.835Z,38.53
2023-02-14T15:32:34.052Z,38.80
2023-02-14T15:35:06.408Z,38.03
2023-02-14T15:37:36.575Z,39.00
2023-02-14T15:40:08.830Z,43.33
2023-02-14T15:42:43.076Z,41.73
2023-02-14T15:45:23.754Z,41.73
2023-02-14T15:47:54.958Z,43.90
2023-02-14T15:50:26.188Z,41.87
2023-02-14T15:53:01.294Z,42.00
2023-02-14T15:55:30.120Z,40.70
2023-02-14T15:58:01.153Z,42.80
2023-02-14T16:00:31.645Z,42.23
2023-02-14T16:03:03.911Z,43.13
2023-02-14T16:05:32.431Z,45.97
2023-02-14T16:08:05.437Z,44.13
2023-02-14T16:10:36.751Z,41.30
2023-02-14T16:13:09.314Z,49.17
2023-02-14T16:15:42.129Z,42.60
2023-02-14T16:18:31.926Z,43.07
2023-02-14T16:21:17.876Z,45.03
2023-02-14T16:23:49.575Z,45.97
2023-02-14T16:26:17.970Z,48.17
2023-02-14T16:28:46.533Z,47.37
2023-02-14T16:31:17.820Z,48.17
2023-02-14T16:33:46.252Z,46.27
2023-02-14T16:36:21.660Z,46.27
2023-02-14T16:38:52.957Z,51.40
2023-02-14T16:41:24.209Z,52.13
2023-02-14T16:43:52.717Z,51.50
2023-02-14T16:46:24.561Z,47.97
2023-02-14T16:48:53.514Z,53.47
2023-02-14T16:51:26.289Z,55.80
2023-02-14T16:53:58.326Z,53.03
2023-02-14T16:56:35.185Z,55.90
2023-02-14T16:59:03.519Z,60.67
2023-02-14T17:01:32.968Z,56.90
2023-02-14T17:04:01.364Z,57.53
2023-02-14T17:06:32.404Z,57.53
2023-02-14T17:09:08.272Z,65.53
2023-02-14T17:11:39.569Z,58.80
2023-02-14T17:14:08.513Z,56.57
2023-02-14T17:16:36.931Z,59.70
2023-02-14T17:19:05.503Z,58.40
2023-02-14T17:21:35.608Z,63.73
2023-02-14T17:24:05.930Z,59.43
2023-02-14T17:26:34.258Z,60.40
2023-02-14T17:29:02.590Z,66.30
2023-02-14T17:31:30.987Z,63.53
2023-02-14T17:33:59.314Z,61.37
2023-02-14T17:36:27.866Z,68.13
2023-02-14T17:38:56.496Z,70.77
2023-02-14T17:41:29.294Z,72.90
2023-02-14T17:44:00.395Z,66.43
2023-02-14T17:46:30.251Z,81.73
2023-02-14T17:49:02.518Z,66.73
2023-02-14T17:51:31.136Z,68.77
2023-02-14T17:53:59.526Z,67.50
2023-02-14T17:56:29.335Z,70.00
2023-02-14T17:58:57.826Z,64.60
2023-02-14T18:01:31.343Z,82.03
2023-02-14T18:04:00.060Z,83.10
2023-02-14T18:06:28.617Z,71.70
2023-02-14T18:08:57.726Z,74.33
2023-02-14T18:11:29.365Z,83.67
2023-02-14T18:13:59.665Z,78.80
2023-02-14T18:16:28.231Z,80.20
2023-02-14T18:18:56.601Z,78.40
2023-02-14T18:21:25.441Z,72.63
2023-02-14T18:23:53.899Z,76.83
2023-02-14T18:26:22.358Z,84.97
2023-02-14T18:28:52.026Z,79.00
2023-02-14T18:31:21.783Z,80.50
2023-02-14T18:33:52.024Z,81.40
2023-02-14T18:36:24.296Z,86.97
2023-02-14T18:38:52.879Z,76.83
2023-02-14T18:41:21.905Z,81.00
2023-02-14T18:43:52.005Z,76.80
2023-02-14T18:46:23.648Z,84.63
2023-02-14T18:48:53.016Z,78.60
2023-02-14T18:51:24.717Z,82.33
2023-02-14T18:53:54.617Z,90.03
2023-02-14T18:56:27.205Z,91.77
2023-02-14T18:58:59.726Z,89.57
2023-02-14T19:01:30.872Z,101.00
2023-02-14T19:04:01.492Z,99.13
2023-02-14T19:06:32.407Z,95.37
2023-02-14T19:09:01.551Z,90.77
2023-02-14T19:11:32.831Z,100.17
2023-02-14T19:14:09.385Z,92.83
2023-02-14T19:16:42.113Z,99.50
2023-02-14T19:19:11.181Z,102.20
2023-02-14T19:21:39.511Z,95.60
2023-02-14T19:24:09.141Z,105.77
2023-02-14T19:26:40.949Z,91.40
2023-02-14T19:29:14.244Z,89.80
2023-02-14T19:31:45.237Z,101.67
2023-02-14T19:34:18.716Z,97.90
2023-02-14T19:36:48.036Z,99.37
2023-02-14T19:39:17.414Z,103.27
2023-02-14T19:41:46.389Z,99.20
2023-02-14T19:44:17.923Z,104.77
2023-02-14T19:46:48.594Z,111.57
2023-02-14T19:49:19.411Z,108.70
2023-02-14T19:51:49.362Z,123.23
2023-02-14T19:54:17.994Z,115.17
2023-02-14T19:56:48.144Z,112.33
2023-02-14T19:59:20.298Z,106.70
2023-02-14T20:01:51.047Z,113.33
2023-02-14T20:04:22.115Z,113.97
2023-02-14T20:06:51.553Z,120.10
2023-02-14T20:09:21.973Z,118.23
2023-02-14T20:11:54.507Z,115.33
2023-02-14T20:14:27.244Z,116.20
2023-02-14T20:16:58.565Z,116.33
2023-02-14T20:19:29.682Z,108.57
2023-02-14T20:21:58.069Z,118.47
2023-02-14T20:24:29.061Z,120.93
2023-02-14T20:26:58.596Z,130.67
2023-02-14T20:29:28.656Z,106.77
2023-02-14T20:32:00.052Z,107.57
2023-02-14T20:34:29.192Z,121.47
2023-02-14T20:36:59.280Z,120.03
2023-02-14T20:39:32.201Z,122.97
2023-02-14T20:42:00.804Z,126.97
2023-02-14T20:44:30.856Z,121.33
2023-02-14T20:46:59.323Z,128.27
2023-02-14T20:49:30.744Z,125.17
2023-02-14T20:52:00.107Z,133.07
2023-02-14T20:54:30.346Z,123.43
2023-02-14T20:56:58.980Z,124.27
2023-02-14T20:59:28.935Z,127.53
2023-02-14T21:02:00.207Z,126.50
2023-02-14T21:04:29.662Z,117.57
2023-02-14T21:07:00.357Z,132.43
2023-02-14T21:09:28.913Z,129.33
2023-02-14T21:11:58.436Z,136.43
2023-02-14T21:14:26.937Z,122.73
2023-02-14T21:16:55.506Z,112.17
2023-02-14T21:19:26.803Z,122.13
2023-02-14T21:21:55.496Z,138.03
2023-02-14T21:24:24.409Z,138.43
2023-02-14T21:26:53.024Z,135.27
2023-02-14T21:29:21.802Z,133.43
2023-02-14T21:31:50.417Z,146.20
2023-02-14T21:34:19.224Z,140.23
2023-02-14T21:36:49.117Z,137.80
2023-02-14T21:39:17.655Z,130.07
2023-02-14T21:41:46.182Z,138.43
2023-02-14T21:44:41.493Z,139.93
2023-02-14T21:47:10.140Z,137.57
2023-02-14T21:49:56.073Z,126.00
2023-02-14T21:52:26.072Z,135.40
2023-02-14T21:54:54.468Z,152.90
2023-02-14T21:57:23.183Z,125.13
2023-02-14T21:59:51.700Z,125.77
2023-02-14T22:02:20.201Z,134.27
2023-02-14T22:04:48.874Z,127.23
2023-02-14T22:07:17.298Z,128.77
2023-02-14T22:09:47.416Z,130.60
2023-02-14T22:12:15.829Z,135.03
2023-02-14T22:14:44.213Z,137.47
2023-02-14T22:17:12.665Z,127.17
2023-02-14T22:19:41.401Z,143.73
2023-02-14T22:22:09.987Z,129.23
2023-02-14T22:24:38.429Z,136.93
2023-02-14T22:27:08.370Z,133.53
2023-02-14T22:29:37.017Z,132.63
2023-02-14T22:32:05.968Z,129.10
2023-02-14T22:34:35.716Z,136.47
2023-02-14T22:37:04.146Z,134.63
2023-02-14T22:39:32.934Z,132.27
2023-02-14T22:42:05.449Z,136.70
2023-02-14T22:44:35.437Z,132.67
2023-02-14T22:47:03.863Z,127.40
2023-02-14T22:49:32.815Z,138.57
2023-02-14T22:52:01.368Z,137.50
2023-02-14T22:54:30.438Z,138.90
2023-02-14T22:56:59.923Z,146.03
2023-02-14T22:59:32.121Z,139.83
2023-02-14T23:02:02.740Z,136.10
2023-02-14T23:04:31.665Z,138.90
2023-02-14T23:07:00.145Z,148.70
2023-02-14T23:09:29.015Z,140.87
2023-02-14T23:11:57.454Z,141.33
2023-02-14T23:14:43.672Z,149.97
2023-02-14T23:17:34.850Z,142.50
2023-02-14T23:20:20.708Z,138.67
2023-02-14T23:22:49.125Z,144.30
2023-02-14T23:25:17.737Z,152.23
2023-02-14T23:27:48.466Z,132.33
2023-02-14T23:30:20.141Z,144.60
2023-02-14T23:32:49.997Z,151.37
2023-02-14T23:35:18.638Z,142.37
2023-02-14T23:37:47.017Z,146.27
2023-02-14T23:40:15.585Z,163.13
2023-02-14T23:42:42.989Z,172.20
2023-02-14T23:45:28.674Z,161.17
2023-02-14T23:48:03.422Z,165.23
2023-02-14T23:50:31.782Z,170.13
2023-02-14T23:53:00.570Z,172.20
2023-02-14T23:55:28.958Z,186.67
2023-02-14T23:57:57.373Z,183.23
